createdAt,value
2018-12-10T00:00:43.546Z,98109.41
2018-12-10T00:03:17.280Z,98125.18
2018-12-10T00:05:45.795Z,98126.63
2018-12-10T00:08:14.202Z,98132.03
2018-12-10T00:10:42.682Z,98138.28
2018-12-10T00:13:11.276Z,98142.38
2018-12-10T00:15:39.804Z,98139.86
2018-12-10T00:18:08.267Z,98155.71
2018-12-10T00:20:36.624Z,98136.85
2018-12-10T00:23:05.084Z,98145.28
2018-12-10T00:25:33.389Z,98138.79
2018-12-10T00:28:01.855Z,98144.78
2018-12-10T00:30:30.262Z,98161.63
2018-12-10T00:32:58.585Z,98156.68
2018-12-10T00:35:26.996Z,98158.15
2018-12-10T00:37:55.501Z,98158.02
2018-12-10T00:40:23.882Z,98170.53
2018-12-10T00:42:52.317Z,98171.86
2018-12-10T00:45:20.709Z,98173.41
2018-12-10T00:47:49.076Z,98184.71
2018-12-10T00:50:17.424Z,98192.53
2018-12-10T00:52:45.751Z,98189.64
2018-12-10T00:55:14.143Z,98194.20
2018-12-10T00:57:42.504Z,98210.30
2018-12-10T01:00:11.094Z,98212.23
2018-12-10T01:02:39.433Z,98216.56
2018-12-10T01:05:07.971Z,98218.49
2018-12-10T01:07:36.314Z,98220.44
2018-12-10T01:10:05.474Z,98232.80
2018-12-10T01:12:33.809Z,98248.55
2018-12-10T01:15:02.109Z,98242.66
2018-12-10T01:17:30.565Z,98238.45
2018-12-10T01:19:58.861Z,98247.59
2018-12-10T01:22:27.222Z,98241.34
2018-12-10T01:24:55.565Z,98245.19
2018-12-10T01:27:24.133Z,98246.98
2018-12-10T01:29:52.662Z,98250.71
2018-12-10T01:32:21.038Z,98243.02
2018-12-10T01:34:49.622Z,98241.10
2018-12-10T01:37:17.978Z,98252.05
2018-12-10T01:39:46.292Z,98268.48
2018-12-10T01:42:14.833Z,98282.06
2018-12-10T01:44:43.271Z,98284.05
2018-12-10T01:47:11.638Z,98271.87
2018-12-10T01:49:39.962Z,98281.00
2018-12-10T01:52:08.325Z,98275.22
2018-12-10T01:54:36.727Z,98278.84
2018-12-10T01:57:05.131Z,98283.16
2018-12-10T01:59:33.649Z,98272.71
2018-12-10T02:02:02.064Z,98285.55
2018-12-10T02:04:30.345Z,98292.05
2018-12-10T02:06:58.815Z,98286.76
2018-12-10T02:09:27.178Z,98296.73
2018-12-10T02:11:55.548Z,98295.28
2018-12-10T02:14:23.934Z,98306.22
2018-12-10T02:16:52.415Z,98299.13
2018-12-10T02:19:20.848Z,98306.56
2018-12-10T02:21:49.186Z,98306.87
2018-12-10T02:24:17.560Z,98304.57
2018-12-10T02:26:46.042Z,98308.42
2018-12-10T02:29:15.105Z,98315.06
2018-12-10T02:31:43.851Z,98312.27
2018-12-10T02:34:12.339Z,98310.25
2018-12-10T02:36:40.682Z,98310.48
2018-12-10T02:39:09.265Z,98314.31
2018-12-10T02:41:37.872Z,98319.47
2018-12-10T02:44:06.326Z,98317.14
2018-12-10T02:46:34.626Z,98314.72
2018-12-10T02:49:03.084Z,98322.11
2018-12-10T02:51:31.428Z,98324.62
2018-12-10T02:53:59.918Z,98320.97
2018-12-10T02:56:28.421Z,98343.42
2018-12-10T02:58:56.770Z,98335.44
2018-12-10T03:01:25.296Z,98341.88
2018-12-10T03:03:53.816Z,98341.22
2018-12-10T03:06:22.397Z,98344.45
2018-12-10T03:08:50.831Z,98351.17
2018-12-10T03:11:19.135Z,98344.34
2018-12-10T03:13:47.491Z,98355.73
2018-12-10T03:16:15.823Z,98351.48
2018-12-10T03:18:44.227Z,98360.17
2018-12-10T03:21:12.616Z,98366.89
2018-12-10T03:23:40.931Z,98355.86
2018-12-10T03:26:09.214Z,98358.62
2018-12-10T03:28:37.737Z,98360.42
2018-12-10T03:31:06.066Z,98363.31
2018-12-10T03:33:34.408Z,98365.70
2018-12-10T03:36:02.721Z,98370.20
2018-12-10T03:38:31.221Z,98370.31
2018-12-10T03:40:59.604Z,98373.09
2018-12-10T03:43:27.941Z,98377.84
2018-12-10T03:45:56.260Z,98390.38
2018-12-10T03:48:24.666Z,98383.78
2018-12-10T03:50:53.319Z,98384.96
2018-12-10T03:53:21.697Z,98381.47
2018-12-10T03:55:50.154Z,98385.09
2018-12-10T03:58:18.533Z,98387.69
2018-12-10T04:00:46.953Z,98394.17
2018-12-10T04:03:15.313Z,98402.27
2018-12-10T04:05:43.676Z,98399.34
2018-12-10T04:08:12.154Z,98412.20
2018-12-10T04:10:40.435Z,98411.72
2018-12-10T04:13:08.836Z,98410.63
2018-12-10T04:15:37.174Z,98422.66
2018-12-10T04:18:05.588Z,98425.77
2018-12-10T04:20:34.047Z,98428.61
2018-12-10T04:23:02.546Z,98434.14
2018-12-10T04:25:30.949Z,98437.84
2018-12-10T04:27:59.276Z,98442.13
2018-12-10T04:30:27.870Z,98442.91
2018-12-10T04:32:56.232Z,98447.78
2018-12-10T04:35:24.704Z,98450.53
2018-12-10T04:37:53.152Z,98454.41
2018-12-10T04:40:21.478Z,98446.61
2018-12-10T04:42:49.947Z,98449.62
2018-12-10T04:45:18.354Z,98455.12
2018-12-10T04:47:46.720Z,98463.03
2018-12-10T04:50:15.077Z,98454.73
2018-12-10T04:52:43.488Z,98460.97
2018-12-10T04:55:11.939Z,98463.07
2018-12-10T04:57:40.240Z,98465.88
2018-12-10T05:00:09.133Z,98487.84
2018-12-10T05:02:37.632Z,98469.88
2018-12-10T05:05:06.169Z,98476.39
2018-12-10T05:07:34.556Z,98499.06
2018-12-10T05:10:02.962Z,98499.45
2018-12-10T05:12:31.433Z,98500.94
2018-12-10T05:14:59.807Z,98509.49
2018-12-10T05:17:28.242Z,98503.39
2018-12-10T05:19:56.552Z,98506.19
2018-12-10T05:22:24.904Z,98506.95
2018-12-10T05:24:53.204Z,98514.11
2018-12-10T05:27:21.500Z,98520.30
2018-12-10T05:29:50.185Z,98527.34
2018-12-10T05:32:18.539Z,98530.55
2018-12-10T05:34:46.943Z,98527.92
2018-12-10T05:37:15.250Z,98524.81
2018-12-10T05:39:43.665Z,98524.63
2018-12-10T05:42:12.162Z,98518.60
2018-12-10T05:44:40.785Z,98524.23
2018-12-10T05:47:09.290Z,98531.41
2018-12-10T05:49:37.687Z,98530.05
2018-12-10T05:52:05.965Z,98531.45
2018-12-10T05:54:34.447Z,98530.61
2018-12-10T05:57:02.741Z,98525.20
2018-12-10T05:59:31.104Z,98528.31
2018-12-10T06:01:59.469Z,98525.78
2018-12-10T06:04:27.991Z,98519.94
2018-12-10T06:06:56.304Z,98527.17
2018-12-10T06:09:24.842Z,98526.19
2018-12-10T06:11:53.202Z,98526.12
2018-12-10T06:14:21.843Z,98529.83
2018-12-10T06:16:51.050Z,98528.23
2018-12-10T06:19:20.222Z,98531.47
2018-12-10T06:21:49.700Z,98537.01
2018-12-10T06:24:18.189Z,98541.34
2018-12-10T06:26:46.550Z,98546.50
2018-12-10T06:29:19.770Z,98548.98
2018-12-10T06:31:48.344Z,98553.73
2018-12-10T06:34:16.717Z,98553.94
2018-12-10T06:36:45.254Z,98555.80
2018-12-10T06:39:13.764Z,98544.60
2018-12-10T06:41:42.191Z,98546.61
2018-12-10T06:44:10.485Z,98554.59
2018-12-10T06:46:38.938Z,98560.12
2018-12-10T06:49:07.394Z,98564.49
2018-12-10T06:51:38.900Z,98571.63
2018-12-10T06:54:07.709Z,98584.35
2018-12-10T06:56:36.342Z,98588.25
2018-12-10T06:59:04.782Z,98596.23
2018-12-10T07:01:33.116Z,98600.59
2018-12-10T07:04:01.507Z,98605.09
2018-12-10T07:06:29.818Z,98620.07
2018-12-10T07:08:58.149Z,98613.03
2018-12-10T07:11:26.662Z,98621.69
2018-12-10T07:13:55.197Z,98619.13
2018-12-10T07:16:23.705Z,98628.84
2018-12-10T07:18:52.253Z,98626.89
2018-12-10T07:21:20.550Z,98620.64
2018-12-10T07:23:49.070Z,98625.25
2018-12-10T07:26:17.374Z,98617.33
2018-12-10T07:28:45.699Z,98621.66
2018-12-10T07:31:14.124Z,98621.29
2018-12-10T07:33:42.525Z,98614.66
2018-12-10T07:36:11.045Z,98623.16
2018-12-10T07:38:39.556Z,98625.39
2018-12-10T07:41:07.869Z,98626.91
2018-12-10T07:43:36.209Z,98635.87
2018-12-10T07:46:04.633Z,98635.30
2018-12-10T07:48:33.168Z,98645.14
2018-12-10T07:51:01.474Z,98643.66
2018-12-10T07:53:29.839Z,98634.22
2018-12-10T07:55:58.189Z,98627.24
2018-12-10T07:58:26.936Z,98643.55
2018-12-10T08:00:55.328Z,98646.56
2018-12-10T08:03:23.719Z,98650.17
2018-12-10T08:05:52.069Z,98650.59
2018-12-10T08:08:23.013Z,98640.50
2018-12-10T08:10:51.477Z,98637.92
2018-12-10T08:13:19.836Z,98672.34
2018-12-10T08:15:48.228Z,98659.41
2018-12-10T08:18:16.790Z,98658.42
2018-12-10T08:20:45.399Z,98655.19
2018-12-10T08:23:13.706Z,98669.80
2018-12-10T08:25:43.243Z,98681.58
2018-12-10T08:28:11.578Z,98677.42
2018-12-10T08:30:40.339Z,98690.07
2018-12-10T08:33:08.838Z,98675.25
2018-12-10T08:35:40.796Z,98674.61
2018-12-10T08:38:07.817Z,98683.53
2018-12-10T08:40:36.833Z,98681.81
2018-12-10T08:43:05.328Z,98689.89
2018-12-10T08:45:33.681Z,98684.23
2018-12-10T08:48:02.050Z,98693.17
2018-12-10T08:50:30.474Z,98695.81
2018-12-10T08:52:58.997Z,98698.67
2018-12-10T08:55:27.649Z,98696.49
2018-12-10T08:57:55.951Z,98703.16
2018-12-10T09:00:24.401Z,98713.11
2018-12-10T09:02:52.727Z,98720.19
2018-12-10T09:05:21.351Z,98722.56
2018-12-10T09:07:49.690Z,98722.19
2018-12-10T09:10:18.099Z,98725.77
2018-12-10T09:12:47.076Z,98723.88
2018-12-10T09:15:15.927Z,98738.30
2018-12-10T09:17:44.219Z,98732.67
2018-12-10T09:20:12.605Z,98729.29
2018-12-10T09:22:40.913Z,98727.86
2018-12-10T09:25:09.315Z,98727.23
2018-12-10T09:27:37.616Z,98721.16
2018-12-10T09:30:08.820Z,98732.00
2018-12-10T09:32:37.136Z,98735.15
2018-12-10T09:35:06.001Z,98727.97
2018-12-10T09:37:34.413Z,98713.81
2018-12-10T09:40:02.749Z,98717.99
2018-12-10T09:42:31.077Z,98723.70
2018-12-10T09:44:59.418Z,98724.12
2018-12-10T09:47:27.720Z,98744.72
2018-12-10T09:49:56.069Z,98742.86
2018-12-10T09:52:24.471Z,98739.55
2018-12-10T09:54:52.870Z,98744.52
2018-12-10T09:57:21.531Z,98751.86
2018-12-10T09:59:49.945Z,98750.28
2018-12-10T10:02:18.257Z,98765.23
2018-12-10T10:04:46.553Z,98762.42
2018-12-10T10:07:14.854Z,98766.05
2018-12-10T10:09:43.496Z,98756.94
2018-12-10T10:12:11.823Z,98761.21
2018-12-10T10:14:40.094Z,98753.66
2018-12-10T10:17:08.519Z,98754.34
2018-12-10T10:19:37.120Z,98753.13
2018-12-10T10:22:05.544Z,98762.32
2018-12-10T10:24:33.973Z,98756.05
2018-12-10T10:27:02.288Z,98734.79
2018-12-10T10:29:30.663Z,98742.52
2018-12-10T10:31:59.082Z,98748.53
2018-12-10T10:34:27.403Z,98736.70
2018-12-10T10:36:55.827Z,98745.11
2018-12-10T10:39:24.896Z,98742.92
2018-12-10T10:41:53.353Z,98745.00
2018-12-10T10:44:21.677Z,98749.44
2018-12-10T10:46:50.233Z,98742.87
2018-12-10T10:49:18.850Z,98754.99
2018-12-10T10:51:47.143Z,98752.08
2018-12-10T10:54:15.469Z,98748.80
2018-12-10T10:56:43.937Z,98746.42
2018-12-10T10:59:12.286Z,98737.55
2018-12-10T11:01:45.828Z,98738.05
2018-12-10T11:04:14.158Z,98740.09
2018-12-10T11:06:42.504Z,98739.44
2018-12-10T11:09:15.359Z,98728.87
2018-12-10T11:11:41.194Z,98735.37
2018-12-10T11:14:09.633Z,98730.27
2018-12-10T11:16:37.950Z,98734.05
2018-12-10T11:19:13.182Z,98741.83
2018-12-10T11:21:41.597Z,98728.66
2018-12-10T11:24:10.117Z,98731.73
2018-12-10T11:26:38.497Z,98731.26
2018-12-10T11:29:07.112Z,98732.38
2018-12-10T11:31:35.446Z,98744.34
2018-12-10T11:34:05.173Z,98722.06
2018-12-10T11:36:33.557Z,98728.36
2018-12-10T11:39:01.886Z,98723.27
2018-12-10T11:41:30.201Z,98727.72
2018-12-10T11:43:58.502Z,98715.34
2018-12-10T11:46:26.853Z,98727.86
2018-12-10T11:48:55.204Z,98734.16
2018-12-10T11:51:25.094Z,98727.63
2018-12-10T11:53:53.598Z,98715.17
2018-12-10T11:56:22.193Z,98721.27
2018-12-10T11:58:50.597Z,98726.11
2018-12-10T12:01:19.054Z,98725.97
2018-12-10T12:03:47.455Z,98725.17
2018-12-10T12:06:15.750Z,98747.23
2018-12-10T12:08:44.175Z,98723.38
2018-12-10T12:11:12.503Z,98721.55
2018-12-10T12:13:40.891Z,98718.97
2018-12-10T12:16:09.442Z,98716.23
2018-12-10T12:18:37.893Z,98711.42
2018-12-10T12:21:06.405Z,98704.66
2018-12-10T12:23:34.738Z,98719.98
2018-12-10T12:26:03.156Z,98712.74
2018-12-10T12:28:31.498Z,98716.39
2018-12-10T12:31:00.003Z,98722.22
2018-12-10T12:33:28.367Z,98716.94
2018-12-10T12:35:56.744Z,98712.83
2018-12-10T12:38:25.167Z,98697.55
2018-12-10T12:40:53.830Z,98705.95
2018-12-10T12:43:22.193Z,98706.53
2018-12-10T12:45:50.590Z,98710.54
2018-12-10T12:48:18.883Z,98699.14
2018-12-10T12:50:47.257Z,98697.14
2018-12-10T12:53:15.602Z,98703.09
2018-12-10T12:55:44.093Z,98692.58
2018-12-10T12:58:12.439Z,98697.87
2018-12-10T13:00:42.011Z,98693.64
2018-12-10T13:03:10.685Z,98700.51
2018-12-10T13:05:39.257Z,98694.95
2018-12-10T13:08:07.825Z,98694.38
2018-12-10T13:10:36.223Z,98701.94
2018-12-10T13:13:04.617Z,98697.39
2018-12-10T13:15:33.064Z,98709.12
2018-12-10T13:18:01.471Z,98711.96
2018-12-10T13:20:29.901Z,98708.73
2018-12-10T13:22:58.262Z,98706.73
2018-12-10T13:25:26.583Z,98707.89
2018-12-10T13:27:54.877Z,98691.19
2018-12-10T13:30:23.449Z,98686.27
2018-12-10T13:32:51.962Z,98683.52
2018-12-10T13:35:20.314Z,98700.91
2018-12-10T13:37:48.671Z,98699.38
2018-12-10T13:40:16.976Z,98691.93
2018-12-10T13:42:45.658Z,98686.22
2018-12-10T13:45:13.987Z,98688.47
2018-12-10T13:47:53.309Z,98692.61
2018-12-10T13:50:21.714Z,98690.47
2018-12-10T13:52:50.014Z,98710.92
2018-12-10T13:55:18.411Z,98696.33
2018-12-10T13:57:46.817Z,98707.55
2018-12-10T14:00:15.538Z,98731.70
2018-12-10T14:02:44.071Z,98732.05
2018-12-10T14:05:14.689Z,98771.13
2018-12-10T14:07:47.934Z,98763.63
2018-12-10T14:10:13.319Z,98739.10
2018-12-10T14:12:41.702Z,98734.06
2018-12-10T14:15:10.604Z,98741.36
2018-12-10T14:17:38.972Z,98746.27
2018-12-10T14:20:08.168Z,98737.73
2018-12-10T14:22:36.696Z,98741.18
2018-12-10T14:25:06.343Z,98753.36
2018-12-10T14:27:34.864Z,98748.05
2018-12-10T14:30:03.401Z,98751.16
2018-12-10T14:32:32.112Z,98755.71
2018-12-10T14:35:00.459Z,98758.34
2018-12-10T14:37:28.858Z,98750.54
2018-12-10T14:39:57.166Z,98743.33
2018-12-10T14:42:25.931Z,98749.13
2018-12-10T14:44:54.295Z,98744.70
2018-12-10T14:47:23.447Z,98743.33
2018-12-10T14:49:51.764Z,98741.16
2018-12-10T14:52:20.159Z,98729.95
2018-12-10T14:54:48.666Z,98736.55
2018-12-10T14:57:17.938Z,98736.92
2018-12-10T14:59:46.372Z,98736.01
2018-12-10T15:02:15.081Z,98728.30
2018-12-10T15:04:44.186Z,98728.10
2018-12-10T15:07:13.061Z,98738.17
2018-12-10T15:09:41.552Z,98737.98
2018-12-10T15:12:09.978Z,98739.41
2018-12-10T15:14:38.254Z,98750.91
2018-12-10T15:17:06.552Z,98753.54
2018-12-10T15:19:34.833Z,98744.31
2018-12-10T15:22:03.129Z,98754.86
2018-12-10T15:24:31.405Z,98746.77
2018-12-10T15:26:59.856Z,98758.05
2018-12-10T15:29:28.129Z,98760.41
2018-12-10T15:31:56.471Z,98760.39
2018-12-10T15:34:25.816Z,98771.78
2018-12-10T15:36:54.306Z,98771.70
2018-12-10T15:39:22.608Z,98776.86
2018-12-10T15:41:50.946Z,98777.43
2018-12-10T15:44:19.212Z,98766.98
2018-12-10T15:46:47.542Z,98765.38
2018-12-10T15:49:15.842Z,98774.06
2018-12-10T15:51:44.168Z,98778.00
2018-12-10T15:54:12.478Z,98771.59
2018-12-10T15:56:42.314Z,98780.91
2018-12-10T15:59:10.597Z,98770.66
2018-12-10T16:01:38.975Z,98769.15
2018-12-10T16:04:07.293Z,98769.68
2018-12-10T16:06:35.615Z,98760.86
2018-12-10T16:09:05.607Z,98758.60
2018-12-10T16:14:08.417Z,98767.14
2018-12-10T16:16:36.916Z,98771.22
2018-12-10T16:19:05.206Z,98776.55
2018-12-10T16:21:33.577Z,98769.88
2018-12-10T16:24:01.894Z,98776.02
2018-12-10T16:26:38.676Z,98775.17
2018-12-10T16:29:07.070Z,98768.77
2018-12-10T16:31:35.379Z,98789.48
2018-12-10T16:34:03.848Z,98763.03
2018-12-10T16:36:32.240Z,98770.38
2018-12-10T16:39:00.559Z,98768.39
2018-12-10T16:41:28.970Z,98758.72
2018-12-10T16:43:57.243Z,98761.53
2018-12-10T16:46:25.665Z,98757.68
2018-12-10T16:48:54.069Z,98749.77
2018-12-10T16:51:22.538Z,98762.20
2018-12-10T16:53:51.333Z,98763.31
2018-12-10T16:56:19.679Z,98773.11
2018-12-10T16:58:47.994Z,98769.44
2018-12-10T17:01:16.360Z,98764.27
2018-12-10T17:03:44.669Z,98774.81
2018-12-10T17:06:13.017Z,98772.95
2018-12-10T17:08:41.377Z,98772.45
2018-12-10T17:11:09.817Z,98774.63
2018-12-10T17:13:38.180Z,98775.39
2018-12-10T17:16:06.625Z,98762.39
2018-12-10T17:18:35.063Z,98759.01
2018-12-10T17:21:03.579Z,98767.96
2018-12-10T17:23:31.999Z,98762.02
2018-12-10T17:26:00.318Z,98757.41
2018-12-10T17:28:28.742Z,98766.73
2018-12-10T17:30:57.066Z,98777.09
2018-12-10T17:33:25.465Z,98773.61
2018-12-10T17:35:53.877Z,98769.17
2018-12-10T17:38:22.256Z,98768.62
2018-12-10T17:40:50.642Z,98776.61
2018-12-10T17:43:18.981Z,98763.63
2018-12-10T17:45:47.280Z,98767.66
2018-12-10T17:48:15.638Z,98769.09
2018-12-10T17:50:44.674Z,98773.33
2018-12-10T17:53:13.021Z,98777.47
2018-12-10T17:55:41.344Z,98772.57
2018-12-10T17:58:09.650Z,98778.67
2018-12-10T18:00:37.944Z,98762.78
2018-12-10T18:03:06.401Z,98765.59
2018-12-10T18:05:34.724Z,98760.13
2018-12-10T18:08:03.026Z,98761.81
2018-12-10T18:10:31.309Z,98771.23
2018-12-10T18:13:00.582Z,98771.82
2018-12-10T18:15:28.872Z,98777.09
2018-12-10T18:17:57.215Z,98779.07
2018-12-10T18:20:25.532Z,98770.59
2018-12-10T18:22:54.008Z,98768.80
2018-12-10T18:25:22.392Z,98771.71
2018-12-10T18:27:50.813Z,98767.28
2018-12-10T18:30:19.236Z,98773.13
2018-12-10T18:32:47.551Z,98769.73
2018-12-10T18:35:15.865Z,98757.86
2018-12-10T18:37:44.160Z,98754.75
2018-12-10T18:40:13.392Z,98762.95
2018-12-10T18:42:41.753Z,98762.67
2018-12-10T18:45:13.301Z,98763.42
2018-12-10T18:47:41.583Z,98775.22
2018-12-10T18:50:10.071Z,98760.49
2018-12-10T18:52:38.384Z,98749.56
2018-12-10T18:55:07.179Z,98749.47
2018-12-10T18:57:35.478Z,98749.94
2018-12-10T19:00:06.082Z,98744.41
2018-12-10T19:02:34.593Z,98746.36
2018-12-10T19:05:02.911Z,98743.72
2018-12-10T19:07:31.305Z,98747.68
2018-12-10T19:09:59.701Z,98749.19
2018-12-10T19:12:28.141Z,98760.42
2018-12-10T19:14:57.282Z,98751.08
2018-12-10T19:17:25.761Z,98752.42
2018-12-10T19:19:54.174Z,98755.98
2018-12-10T19:22:22.503Z,98769.45
2018-12-10T19:24:51.061Z,98777.10
2018-12-10T19:27:19.572Z,98768.42
2018-12-10T19:29:48.019Z,98759.36
2018-12-10T19:32:16.539Z,98772.36
2018-12-10T19:34:44.969Z,98765.78
2018-12-10T19:37:13.518Z,98763.80
2018-12-10T19:39:41.996Z,98777.83
2018-12-10T19:42:10.462Z,98777.24
2018-12-10T19:44:38.888Z,98770.08
2018-12-10T19:47:07.420Z,98755.33
2018-12-10T19:49:37.445Z,98762.39
2018-12-10T19:52:05.909Z,98765.75
2018-12-10T19:54:34.227Z,98770.38
2018-12-10T19:57:02.553Z,98769.45
2018-12-10T19:59:31.446Z,98765.47
2018-12-10T20:02:00.097Z,98767.66
2018-12-10T20:04:28.643Z,98763.22
2018-12-10T20:07:02.439Z,98765.19
2018-12-10T20:09:31.851Z,98764.25
2018-12-10T20:12:00.168Z,98764.81
2018-12-10T20:14:28.585Z,98769.83
2018-12-10T20:16:56.963Z,98757.97
2018-12-10T20:19:25.528Z,98771.91
2018-12-10T20:21:54.543Z,98772.38
2018-12-10T20:24:22.996Z,98766.72
2018-12-10T20:26:51.391Z,98765.12
2018-12-10T20:29:20.275Z,98769.92
2018-12-10T20:31:49.690Z,98774.06
2018-12-10T20:34:18.127Z,98777.36
2018-12-10T20:36:46.671Z,98771.55
2018-12-10T20:39:15.070Z,98773.70
2018-12-10T20:41:43.510Z,98773.11
2018-12-10T20:44:11.883Z,98762.78
2018-12-10T20:46:40.898Z,98779.92
2018-12-10T20:49:09.651Z,98776.53
2018-12-10T20:51:38.000Z,98773.23
2018-12-10T20:54:06.522Z,98774.63
2018-12-10T20:56:37.768Z,98780.84
2018-12-10T20:59:06.262Z,98777.47
2018-12-10T21:01:34.667Z,98775.58
2018-12-10T21:04:03.034Z,98783.57
2018-12-10T21:06:36.743Z,98780.56
2018-12-10T21:09:08.478Z,98771.13
2018-12-10T21:11:36.818Z,98765.39
2018-12-10T21:14:05.301Z,98770.88
2018-12-10T21:16:33.612Z,98760.88
2018-12-10T21:19:05.156Z,98769.19
2018-12-10T21:21:33.713Z,98769.25
2018-12-10T21:24:01.998Z,98770.78
2018-12-10T21:26:30.389Z,98760.13
2018-12-10T21:28:58.800Z,98774.84
2018-12-10T21:31:27.329Z,98773.31
2018-12-10T21:33:55.756Z,98784.80
2018-12-10T21:36:24.058Z,98780.49
2018-12-10T21:38:52.327Z,98766.92
2018-12-10T21:41:21.016Z,98772.36
2018-12-10T21:43:49.298Z,98767.30
2018-12-10T21:46:20.334Z,98760.59
2018-12-10T21:48:59.689Z,98771.63
2018-12-10T21:51:35.440Z,98772.20
2018-12-10T21:54:15.711Z,98758.63
2018-12-10T21:56:53.653Z,98762.77
2018-12-10T21:59:36.267Z,98754.66
2018-12-10T22:02:26.547Z,98768.61
2018-12-10T22:05:00.809Z,98770.47
2018-12-10T22:07:36.664Z,98770.47
2018-12-10T22:10:24.320Z,98771.80
2018-12-10T22:13:05.650Z,98773.87
2018-12-10T22:15:45.340Z,98781.42
2018-12-10T22:18:46.012Z,98770.77
2018-12-10T22:21:22.509Z,98772.55
2018-12-10T22:23:58.817Z,98767.25
2018-12-10T22:26:39.432Z,98774.52
2018-12-10T22:29:26.619Z,98763.49
2018-12-10T22:32:05.885Z,98768.97
2018-12-10T22:34:44.508Z,98770.47
2018-12-10T22:37:22.856Z,98775.00
2018-12-10T22:40:02.513Z,98769.99
2018-12-10T22:42:42.559Z,98774.80
2018-12-10T22:45:33.412Z,98772.06
2018-12-10T22:48:07.666Z,98780.84
2018-12-10T22:50:40.505Z,98774.82
2018-12-10T22:53:09.691Z,98777.83
2018-12-10T22:55:50.029Z,98778.48
2018-12-10T22:58:30.776Z,98775.27
2018-12-10T23:01:07.621Z,98784.31
2018-12-10T23:03:40.839Z,98786.31
2018-12-10T23:06:16.887Z,98781.61
2018-12-10T23:08:56.946Z,98792.69
2018-12-10T23:11:33.181Z,98781.01
2018-12-10T23:14:11.025Z,98785.72
2018-12-10T23:16:44.525Z,98783.47
2018-12-10T23:19:20.907Z,98786.09
2018-12-10T23:24:39.560Z,98794.85
2018-12-10T23:27:07.940Z,98794.48
2018-12-10T23:29:36.366Z,98810.13
2018-12-10T23:32:04.817Z,98802.86
2018-12-10T23:34:33.273Z,98817.58
2018-12-10T23:37:01.636Z,98798.15
2018-12-10T23:39:29.987Z,98807.29
2018-12-10T23:41:58.287Z,98810.85
2018-12-10T23:44:32.024Z,98802.58
2018-12-10T23:47:00.337Z,98803.83
2018-12-10T23:49:28.674Z,98797.60
2018-12-10T23:51:57.036Z,98804.17
2018-12-10T23:54:25.421Z,98811.83
2018-12-10T23:56:53.693Z,98811.63
2018-12-10T23:59:22.191Z,98820.89
